Time;durP1;ratioP1;P1;durP2;ratioP2;P2;SDS_P1;SDS_P2;PMS_P1;PMS_P2;Temp;Humidity;BMP_temperature;BMP_pressure;BME280_temperature;BME280_humidity;BME280_pressure;Samples;Min_cycle;Max_cycle;Signal;HPM_P1;HPM_P2
2023/01/14 09:29:41;;;;;;;1.17;0.88;;;21.90;70.10;;;;;;5137949;23;20582;-77
2023/01/14 09:32:10;;;;;;;1.00;0.80;;;21.90;70.40;;;;;;4865301;29;20204;-78
2023/01/14 09:34:41;;;;;;;3.15;1.10;;;21.90;70.40;;;;;;4856447;29;20205;-89
2023/01/14 09:37:08;;;;;;;1.70;0.90;;;21.90;69.80;;;;;;4856537;29;20715;-88
2023/01/14 09:39:35;;;;;;;4.43;1.00;;;22.10;68.90;;;;;;4861163;29;20214;-86
2023/01/14 09:42:08;;;;;;;1.20;0.90;;;22.40;68.20;;;;;;4868638;29;20214;-86
2023/01/14 09:44:35;;;;;;;1.35;0.85;;;22.50;67.20;;;;;;4869008;29;20231;-87
2023/01/14 09:47:03;;;;;;;4.65;0.98;;;22.70;67.30;;;;;;4867865;29;21899;-85
2023/01/14 09:49:30;;;;;;;1.17;0.85;;;22.70;67.00;;;;;;4868963;29;20222;-89
2023/01/14 09:52:20;;;;;;;1.58;1.00;;;22.70;67.20;;;;;;4870223;29;20269;-92
2023/01/14 09:54:59;;;;;;;2.95;1.20;;;22.80;67.40;;;;;;4868630;29;20204;-81
2023/01/14 09:57:40;;;;;;;3.97;1.40;;;22.60;68.40;;;;;;4861442;29;20215;-81
2023/01/14 10:00:25;;;;;;;3.28;1.27;;;22.40;69.30;;;;;;4858192;29;20203;-77
2023/01/14 10:02:59;;;;;;;1.63;0.80;;;22.30;69.60;;;;;;4863525;29;20973;-78
2023/01/14 10:05:28;;;;;;;7.95;1.10;;;22.20;69.80;;;;;;4867821;29;20239;-77
2023/01/14 10:07:56;;;;;;;5.65;1.30;;;22.20;69.80;;;;;;4865121;29;20214;-78
2023/01/14 10:10:29;;;;;;;1.10;0.95;;;22.20;69.70;;;;;;4862670;29;20207;-78
2023/01/14 10:12:58;;;;;;;1.58;1.15;;;22.10;69.70;;;;;;4867745;29;20209;-77
2023/01/14 10:15:34;;;;;;;1.35;0.80;;;22.20;69.80;;;;;;4862825;29;20220;-78
2023/01/14 10:18:11;;;;;;;1.50;1.15;;;22.20;69.80;;;;;;4861715;29;20217;-78
2023/01/14 10:20:47;;;;;;;2.92;0.90;;;22.20;69.80;;;;;;4858999;29;20549;-78
2023/01/14 10:23:17;;;;;;;1.80;1.00;;;22.10;69.70;;;;;;4856472;29;20210;-78
2023/01/14 10:25:48;;;;;;;1.17;0.90;;;22.20;69.70;;;;;;4858831;29;20223;-77
2023/01/14 10:28:18;;;;;;;1.70;1.15;;;22.20;69.70;;;;;;4858500;29;20235;-77
2023/01/14 10:30:48;;;;;;;2.05;1.13;;;22.20;69.70;;;;;;4860237;29;20223;-77
2023/01/14 10:33:19;;;;;;;5.18;1.40;;;22.10;69.60;;;;;;4858961;29;21120;-78
2023/01/14 10:35:49;;;;;;;2.95;1.20;;;22.10;69.60;;;;;;4854636;29;20209;-79
2023/01/14 10:38:19;;;;;;;2.10;1.00;;;22.10;69.60;;;;;;4858950;29;20204;-77
2023/01/14 10:40:47;;;;;;;1.40;0.82;;;22.10;69.60;;;;;;4863084;29;20754;-79
2023/01/14 10:43:28;;;;;;;3.20;1.00;;;22.10;69.50;;;;;;4866803;29;20214;-78
2023/01/14 10:45:55;;;;;;;4.22;0.88;;;22.10;69.50;;;;;;4861687;29;20482;-77
2023/01/14 10:48:25;;;;;;;1.75;0.95;;;22.10;69.40;;;;;;4859252;29;20216;-79
2023/01/14 10:50:52;;;;;;;3.03;0.95;;;22.10;69.30;;;;;;4861463;29;20699;-78
2023/01/14 10:53:22;;;;;;;1.13;0.80;;;22.10;69.30;;;;;;4859758;29;20304;-79
2023/01/14 10:55:58;;;;;;;2.65;1.23;;;22.10;69.30;;;;;;4858662;29;20211;-77
2023/01/14 10:58:31;;;;;;;1.25;0.80;;;22.10;70.10;;;;;;4859143;29;20310;-78
2023/01/14 11:01:04;;;;;;;1.65;0.90;;;22.20;69.50;;;;;;4860921;29;20208;-79
2023/01/14 11:03:34;;;;;;;1.75;1.00;;;22.20;69.30;;;;;;4859540;29;20215;-79
2023/01/14 11:06:04;;;;;;;2.13;1.35;;;22.20;69.30;;;;;;4858687;29;20592;-76
2023/01/14 11:08:35;;;;;;;3.45;1.00;;;22.20;69.20;;;;;;4859397;29;20346;-78
2023/01/14 11:11:05;;;;;;;4.15;1.33;;;22.20;69.30;;;;;;4864896;29;20352;-78
2023/01/14 11:13:36;;;;;;;2.28;1.15;;;22.20;69.20;;;;;;4867585;29;20704;-77
2023/01/14 11:16:03;;;;;;;5.25;1.13;;;22.20;69.20;;;;;;4861637;29;20199;-77
2023/01/14 11:18:34;;;;;;;2.78;1.23;;;22.20;69.30;;;;;;4861482;29;20223;-82
2023/01/14 11:21:23;;;;;;;2.42;1.40;;;21.80;66.80;;;;;;4863691;29;20673;-82
2023/01/14 11:23:55;;;;;;;3.90;1.40;;;21.10;64.90;;;;;;4856938;29;20310;-81
2023/01/14 11:26:25;;;;;;;6.68;1.55;;;20.80;64.50;;;;;;4861237;29;20228;-81
2023/01/14 11:28:53;;;;;;;4.78;1.80;;;20.60;64.20;;;;;;4860228;29;20244;-78
2023/01/14 11:31:35;;;;;;;2.58;1.20;;;20.50;65.00;;;;;;4862996;29;20244;-88
2023/01/14 11:34:04;;;;;;;4.45;1.20;;;20.90;66.40;;;;;;4860891;29;20671;-84
2023/01/14 11:36:33;;;;;;;4.85;1.23;;;21.10;66.40;;;;;;4861682;29;20207;-83
2023/01/14 11:39:01;;;;;;;5.22;1.60;;;21.20;67.10;;;;;;4862597;29;20237;-81
2023/01/14 11:41:37;;;;;;;6.18;1.40;;;21.30;67.40;;;;;;4870938;29;20563;-75
2023/01/14 11:44:17;;;;;;;3.15;1.55;;;21.30;67.60;;;;;;4870846;29;20214;-78
2023/01/14 11:46:45;;;;;;;3.70;1.95;;;21.30;68.40;;;;;;4859786;29;20686;-78
2023/01/14 11:49:21;;;;;;;6.22;1.17;;;21.30;68.70;;;;;;4856989;29;20736;-88
2023/01/14 11:51:59;;;;;;;3.40;1.10;;;21.50;68.70;;;;;;4864020;29;20774;-87
2023/01/14 11:54:32;;;;;;;2.22;1.00;;;21.80;68.30;;;;;;4859712;29;20213;-88
2023/01/14 11:56:59;;;;;;;2.42;1.25;;;21.90;67.80;;;;;;4865969;29;20216;-84
2023/01/14 11:59:29;;;;;;;2.95;1.30;;;22.10;67.90;;;;;;4865367;29;20698;-87
2023/01/14 12:02:00;;;;;;;2.72;1.20;;;22.20;67.60;;;;;;4866682;29;20303;-87
2023/01/14 12:04:34;;;;;;;2.00;1.00;;;22.20;67.50;;;;;;4869006;29;20211;-87
2023/01/14 12:07:04;;;;;;;3.05;1.17;;;22.30;67.40;;;;;;4871415;29;21260;-86
2023/01/14 12:09:42;;;;;;;3.00;1.00;;;22.40;67.30;;;;;;4861969;29;20202;-86
2023/01/14 12:12:16;;;;;;;2.03;1.00;;;22.50;67.20;;;;;;4868819;29;20215;-88
2023/01/14 12:17:37;;;;;;;3.58;0.95;;;22.60;67.30;;;;;;4863542;29;20218;-89
2023/01/14 12:20:08;;;;;;;2.35;1.10;;;22.70;67.20;;;;;;4866696;29;20208;-90
2023/01/14 12:22:44;;;;;;;2.33;1.20;;;22.70;67.00;;;;;;4865094;29;21802;-88
2023/01/14 12:25:18;;;;;;;1.60;0.90;;;22.70;67.00;;;;;;4862473;29;20227;-89
2023/01/14 12:27:57;;;;;;;2.30;1.13;;;22.80;67.10;;;;;;4860371;29;20195;-89
2023/01/14 12:30:41;;;;;;;1.25;1.00;;;22.80;67.20;;;;;;4863105;29;20219;-88
2023/01/14 12:33:16;;;;;;;1.42;1.00;;;22.80;67.20;;;;;;4863160;29;20609;-88
2023/01/14 12:35:49;;;;;;;2.63;1.27;;;22.80;67.20;;;;;;4862087;29;20688;-87
2023/01/14 12:46:40;;;;;;;3.05;1.42;;;22.80;67.70;;;;;;4863674;29;20234;-83
2023/01/14 12:49:07;;;;;;;2.42;1.02;;;22.80;67.70;;;;;;4865531;29;20624;-85
2023/01/14 12:51:40;;;;;;;1.33;1.00;;;22.80;67.80;;;;;;4870287;29;20625;-84
2023/01/14 12:54:11;;;;;;;1.27;0.90;;;22.80;68.10;;;;;;4869536;29;20284;-82
2023/01/14 12:56:50;;;;;;;1.60;0.95;;;22.80;68.30;;;;;;4871230;29;20302;-85
2023/01/14 12:59:23;;;;;;;1.40;1.10;;;22.80;68.20;;;;;;4869325;29;20212;-88
2023/01/14 13:01:53;;;;;;;2.20;1.13;;;22.80;68.10;;;;;;4869894;29;20211;-88
2023/01/14 13:04:24;;;;;;;1.00;0.80;;;22.80;68.10;;;;;;4862756;29;20215;-86
2023/01/14 13:06:57;;;;;;;1.88;0.88;;;22.80;68.20;;;;;;4861570;29;20639;-87
2023/01/14 13:09:28;;;;;;;4.25;1.00;;;22.80;68.30;;;;;;4862766;29;20307;-86
2023/01/14 13:11:56;;;;;;;1.30;0.90;;;22.80;68.30;;;;;;4864987;29;20275;-88
2023/01/14 13:14:34;;;;;;;8.52;0.90;;;22.80;68.50;;;;;;4869297;29;20544;-81
2023/01/14 13:17:03;;;;;;;4.53;1.00;;;22.80;68.50;;;;;;4865001;29;20199;-81
2023/01/14 13:19:36;;;;;;;1.00;0.70;;;22.70;69.40;;;;;;4861143;29;20220;-81
2023/01/14 13:22:06;;;;;;;1.58;0.98;;;22.70;69.50;;;;;;4859588;29;20207;-81
2023/01/14 13:24:35;;;;;;;2.80;1.00;;;22.70;69.30;;;;;;4861780;29;20206;-81
2023/01/14 13:27:25;;;;;;;1.17;0.90;;;22.70;69.20;;;;;;4859354;29;20255;-81
2023/01/14 13:30:30;;;;;;;1.98;0.98;;;22.60;69.20;;;;;;4861092;29;20243;-83
2023/01/14 13:33:15;;;;;;;1.30;0.90;;;22.60;69.10;;;;;;4865995;29;20211;-90
2023/01/14 13:35:42;;;;;;;1.53;0.90;;;22.50;69.40;;;;;;4862743;29;20305;-85
2023/01/14 13:38:20;;;;;;;1.20;0.88;;;22.60;69.50;;;;;;4861866;29;20468;-85
2023/01/14 13:40:52;;;;;;;1.00;0.70;;;22.60;69.40;;;;;;4862572;29;20208;-86
2023/01/14 13:43:23;;;;;;;2.95;1.08;;;22.70;69.30;;;;;;4866372;29;20207;-86
2023/01/14 13:45:53;;;;;;;1.13;0.90;;;22.70;69.40;;;;;;4869061;29;20223;-84
2023/01/14 13:48:25;;;;;;;1.00;0.90;;;22.70;69.40;;;;;;4861394;29;20212;-84
2023/01/14 13:50:52;;;;;;;2.65;0.80;;;22.70;69.40;;;;;;4856675;29;20460;-88
2023/01/14 13:53:28;;;;;;;1.13;0.80;;;22.70;69.30;;;;;;4858447;29;20241;-86
2023/01/14 13:55:58;;;;;;;1.20;0.85;;;22.70;69.40;;;;;;4861231;29;21118;-86
2023/01/14 13:58:32;;;;;;;1.67;0.90;;;22.80;69.40;;;;;;4858659;29;20267;-84
2023/01/14 14:01:26;;;;;;;2.20;1.00;;;22.70;69.30;;;;;;4859558;29;20206;-84
2023/01/14 14:03:54;;;;;;;1.27;0.90;;;22.70;69.40;;;;;;4866727;29;20301;-86
2023/01/14 14:06:47;;;;;;;1.73;0.88;;;22.80;69.50;;;;;;4866126;29;20335;-85
2023/01/14 14:09:22;;;;;;;2.00;0.90;;;22.70;69.70;;;;;;4860799;29;20199;-84
2023/01/14 14:11:59;;;;;;;2.10;0.93;;;22.70;69.80;;;;;;4862505;29;20307;-88
2023/01/14 14:14:30;;;;;;;1.33;0.90;;;22.70;69.80;;;;;;4867732;29;20713;-85
2023/01/14 14:17:00;;;;;;;1.10;0.70;;;22.70;69.80;;;;;;4865600;29;20200;-84
2023/01/14 14:19:33;;;;;;;1.33;1.00;;;22.70;70.00;;;;;;4860852;29;20208;-86
2023/01/14 14:22:06;;;;;;;1.20;0.90;;;22.70;69.90;;;;;;4859495;29;20692;-88
2023/01/14 14:24:38;;;;;;;1.23;0.80;;;22.70;69.90;;;;;;4861534;29;20777;-84
2023/01/14 14:27:09;;;;;;;0.90;0.73;;;22.70;70.00;;;;;;4858730;29;21049;-86
2023/01/14 14:29:39;;;;;;;1.05;0.90;;;22.70;70.10;;;;;;4859387;29;20241;-82
2023/01/14 14:32:11;;;;;;;1.00;0.80;;;22.70;70.00;;;;;;4862336;29;20231;-86
2023/01/14 14:34:41;;;;;;;2.08;0.90;;;22.70;70.10;;;;;;4862016;29;20480;-86
2023/01/14 14:37:18;;;;;;;1.20;0.80;;;22.70;70.10;;;;;;4861556;29;20209;-86
2023/01/14 14:39:52;;;;;;;1.75;0.90;;;22.70;70.10;;;;;;4856846;29;21087;-78
2023/01/14 14:42:20;;;;;;;1.38;0.80;;;22.60;70.20;;;;;;4859546;29;20703;-77
2023/01/14 14:44:54;;;;;;;1.75;0.80;;;22.30;71.30;;;;;;4864739;29;20211;-77
2023/01/14 14:47:26;;;;;;;1.27;1.10;;;22.10;71.90;;;;;;4862079;29;20235;-77
2023/01/14 14:49:54;;;;;;;1.38;0.80;;;22.00;72.20;;;;;;4859507;29;20216;-77
2023/01/14 14:52:21;;;;;;;1.10;0.70;;;21.90;72.50;;;;;;4859402;29;20223;-76
2023/01/14 14:54:49;;;;;;;1.00;0.80;;;21.90;72.60;;;;;;4858727;29;20470;-76
2023/01/14 14:57:22;;;;;;;1.10;0.70;;;21.80;72.70;;;;;;4861278;29;20207;-77
2023/01/14 14:59:48;;;;;;;1.52;0.90;;;21.80;72.80;;;;;;4859567;29;20215;-77
2023/01/14 15:02:24;;;;;;;1.10;0.80;;;21.80;73.70;;;;;;4860618;29;20212;-77
2023/01/14 15:04:52;;;;;;;1.70;0.70;;;21.80;72.80;;;;;;4860706;29;20460;-77
2023/01/14 15:07:21;;;;;;;1.38;0.85;;;21.80;72.90;;;;;;4865504;29;20224;-76
2023/01/14 15:09:52;;;;;;;1.75;0.85;;;21.80;72.90;;;;;;4855319;29;20207;-85
2023/01/14 15:12:21;;;;;;;1.23;0.80;;;21.90;72.70;;;;;;4861667;29;20219;-86
2023/01/14 15:14:56;;;;;;;1.20;0.80;;;22.20;71.60;;;;;;4868143;29;20218;-88
2023/01/14 15:17:23;;;;;;;1.77;1.00;;;22.40;71.20;;;;;;4865385;29;20196;-89
2023/01/14 15:19:52;;;;;;;1.35;0.88;;;22.40;71.00;;;;;;4858354;29;20263;-89
2023/01/14 15:22:21;;;;;;;1.23;0.70;;;22.50;70.90;;;;;;4859549;29;20215;-88
2023/01/14 15:24:52;;;;;;;1.40;0.80;;;22.50;70.90;;;;;;4857977;29;20212;-86
2023/01/14 15:27:21;;;;;;;1.10;0.75;;;22.50;70.90;;;;;;4861223;29;20226;-87
2023/01/14 15:29:59;;;;;;;2.75;0.80;;;22.60;70.90;;;;;;4861698;29;20334;-89
2023/01/14 15:32:39;;;;;;;1.10;0.70;;;22.60;70.60;;;;;;4863430;29;20210;-83
2023/01/14 15:35:19;;;;;;;1.08;0.75;;;22.70;70.80;;;;;;4866431;29;20316;-82
2023/01/14 15:37:48;;;;;;;1.27;1.00;;;22.60;71.00;;;;;;4864044;29;20672;-89
2023/01/14 15:40:15;;;;;;;1.10;0.90;;;22.60;71.20;;;;;;4861955;29;20216;-84
2023/01/14 15:42:43;;;;;;;1.30;0.80;;;22.70;71.20;;;;;;4867030;29;20472;-86
2023/01/14 15:45:17;;;;;;;1.70;0.80;;;22.70;71.40;;;;;;4870486;29;20667;-86
2023/01/14 15:47:44;;;;;;;5.05;0.90;;;22.70;70.80;;;;;;4869250;29;20218;-88
2023/01/14 15:50:21;;;;;;;1.20;0.82;;;22.70;70.80;;;;;;4864024;29;20216;-86
2023/01/14 15:53:05;;;;;;;3.17;0.80;;;22.70;70.90;;;;;;4862462;29;20216;-85
2023/01/14 15:55:32;;;;;;;1.58;1.00;;;22.70;70.80;;;;;;4859809;29;21001;-84
2023/01/14 15:58:00;;;;;;;1.95;0.88;;;22.70;70.60;;;;;;4864997;29;20215;-84
2023/01/14 16:00:28;;;;;;;1.00;0.77;;;22.80;70.60;;;;;;4862325;29;20215;-83
2023/01/14 16:02:57;;;;;;;2.00;0.88;;;22.70;70.70;;;;;;4864764;29;20274;-85
2023/01/14 16:05:32;;;;;;;1.07;0.80;;;22.70;70.60;;;;;;4870071;29;20204;-85
2023/01/14 16:08:07;;;;;;;2.00;0.90;;;22.80;70.60;;;;;;4867301;29;20808;-88
2023/01/14 16:10:36;;;;;;;2.20;0.95;;;22.70;70.50;;;;;;4861097;29;20759;-88
2023/01/14 16:13:03;;;;;;;1.00;0.75;;;22.70;70.40;;;;;;4864796;29;20219;-83
2023/01/14 16:15:32;;;;;;;1.13;0.70;;;22.70;70.50;;;;;;4870187;29;20219;-86
2023/01/14 16:18:11;;;;;;;0.82;0.68;;;22.70;70.50;;;;;;4869924;29;20213;-83
2023/01/14 16:20:38;;;;;;;1.00;0.70;;;22.70;70.50;;;;;;4868759;29;20207;-85
2023/01/14 16:23:06;;;;;;;1.10;0.70;;;22.70;70.40;;;;;;4859359;29;20817;-85
2023/01/14 16:25:33;;;;;;;0.90;0.70;;;22.70;70.60;;;;;;4862006;29;22904;-84
2023/01/14 16:28:00;;;;;;;0.90;0.70;;;22.80;70.40;;;;;;4860564;29;20243;-83
2023/01/14 16:30:27;;;;;;;1.40;0.80;;;22.70;70.40;;;;;;4862584;29;20699;-84
2023/01/14 16:32:55;;;;;;;1.45;0.73;;;22.70;70.50;;;;;;4860026;29;20209;-85
2023/01/14 16:35:22;;;;;;;1.23;0.77;;;22.70;70.60;;;;;;4859746;29;20212;-85
2023/01/14 16:37:49;;;;;;;0.80;0.60;;;22.70;70.50;;;;;;4857714;29;20693;-84
2023/01/14 16:40:24;;;;;;;1.20;0.77;;;22.70;70.60;;;;;;4861439;29;20213;-85
2023/01/14 16:42:51;;;;;;;1.38;0.88;;;22.80;70.70;;;;;;4859852;29;20654;-86
2023/01/14 16:45:19;;;;;;;1.48;0.70;;;22.70;70.40;;;;;;4865168;29;20215;-86
2023/01/14 16:47:46;;;;;;;1.23;0.88;;;22.70;70.60;;;;;;4868622;29;20296;-87
2023/01/14 16:50:14;;;;;;;1.60;0.80;;;22.70;70.50;;;;;;4861111;29;20227;-82
2023/01/14 16:52:41;;;;;;;1.20;0.70;;;22.70;70.50;;;;;;4860961;29;20933;-84
2023/01/14 16:55:19;;;;;;;2.03;0.80;;;22.70;70.50;;;;;;4861037;29;21030;-85
2023/01/14 16:57:46;;;;;;;1.08;0.82;;;22.70;70.50;;;;;;4859808;29;20573;-86
2023/01/14 17:00:13;;;;;;;1.33;0.82;;;22.70;70.30;;;;;;4862727;29;20212;-85
2023/01/14 17:02:40;;;;;;;2.10;0.98;;;22.80;70.30;;;;;;4862698;29;20208;-86
2023/01/14 17:05:08;;;;;;;1.47;0.90;;;22.80;70.30;;;;;;4861842;29;20666;-87
2023/01/14 17:07:38;;;;;;;1.23;1.00;;;22.80;70.90;;;;;;4861500;29;20852;-84
2023/01/14 17:10:06;;;;;;;1.17;0.80;;;22.80;70.00;;;;;;4859622;29;20476;-86
2023/01/14 17:12:41;;;;;;;2.22;1.10;;;22.80;70.10;;;;;;4861551;29;20735;-87
2023/01/14 17:15:11;;;;;;;1.00;0.70;;;22.80;70.30;;;;;;4863672;29;20207;-84
2023/01/14 17:17:39;;;;;;;0.80;0.60;;;22.80;70.00;;;;;;4867586;29;20204;-87
2023/01/14 17:20:08;;;;;;;1.17;0.85;;;22.80;69.90;;;;;;4866200;29;20210;-85
2023/01/14 17:22:35;;;;;;;0.80;0.60;;;22.90;70.00;;;;;;4867776;29;20205;-86
2023/01/14 17:25:02;;;;;;;0.95;0.70;;;22.90;70.40;;;;;;4864963;29;20579;-86
2023/01/14 17:27:29;;;;;;;0.90;0.67;;;22.90;69.80;;;;;;4865878;29;20663;-87
2023/01/14 17:29:57;;;;;;;1.07;0.77;;;22.90;69.90;;;;;;4862666;29;20496;-85
2023/01/14 17:32:24;;;;;;;1.15;0.80;;;22.90;70.10;;;;;;4863885;29;21566;-86
2023/01/14 17:34:51;;;;;;;1.90;0.90;;;22.90;70.20;;;;;;4867241;29;20671;-87
2023/01/14 17:37:17;;;;;;;1.08;0.80;;;22.90;70.10;;;;;;4867499;29;20203;-83
2023/01/14 17:39:44;;;;;;;1.10;0.80;;;22.90;70.20;;;;;;4865498;29;20271;-82
2023/01/14 17:42:11;;;;;;;1.20;0.80;;;22.90;70.20;;;;;;4866012;29;20216;-82
2023/01/14 17:44:38;;;;;;;1.00;0.70;;;22.90;70.10;;;;;;4868501;29;20262;-83
2023/01/14 17:47:07;;;;;;;0.80;0.60;;;22.90;70.10;;;;;;4868728;29;20586;-85
2023/01/14 17:49:34;;;;;;;1.23;1.10;;;22.90;70.10;;;;;;4865256;29;20267;-85
2023/01/14 17:52:03;;;;;;;2.20;0.90;;;22.90;70.80;;;;;;4866626;29;20799;-84
2023/01/14 17:54:30;;;;;;;0.80;0.70;;;22.90;70.10;;;;;;4861105;29;20727;-77
2023/01/14 17:56:57;;;;;;;1.00;0.80;;;22.70;70.30;;;;;;4866155;29;20966;-77
2023/01/14 17:59:24;;;;;;;1.00;0.80;;;22.20;70.90;;;;;;4866588;29;20535;-78
2023/01/14 18:01:51;;;;;;;1.30;1.00;;;22.00;71.40;;;;;;4865355;29;20664;-77
2023/01/14 18:04:19;;;;;;;1.00;0.70;;;21.90;71.70;;;;;;4865839;29;20923;-78
2023/01/14 18:06:46;;;;;;;0.98;0.75;;;21.80;72.00;;;;;;4868334;29;20486;-77
2023/01/14 18:09:13;;;;;;;1.10;0.80;;;21.70;72.30;;;;;;4865320;29;20210;-76
2023/01/14 18:11:40;;;;;;;2.65;0.93;;;21.70;72.30;;;;;;4863392;29;20211;-77
2023/01/14 18:14:07;;;;;;;1.30;0.80;;;21.70;72.50;;;;;;4868396;29;20597;-77
2023/01/14 18:16:34;;;;;;;1.73;1.00;;;21.60;72.40;;;;;;4868071;29;20211;-77
2023/01/14 18:19:01;;;;;;;2.10;0.80;;;21.60;72.50;;;;;;4864901;29;20204;-77
2023/01/14 18:21:29;;;;;;;1.33;0.80;;;21.60;72.50;;;;;;4866984;29;20298;-78
2023/01/14 18:23:55;;;;;;;2.78;1.10;;;21.70;72.50;;;;;;4862532;29;20212;-78
2023/01/14 18:26:24;;;;;;;1.00;0.80;;;21.70;72.40;;;;;;4867639;29;20274;-78
2023/01/14 18:28:54;;;;;;;3.93;1.00;;;21.70;72.30;;;;;;4865577;29;20797;-77
2023/01/14 18:31:21;;;;;;;5.20;1.00;;;21.70;72.20;;;;;;4864670;29;20469;-77
2023/01/14 18:33:48;;;;;;;1.67;0.70;;;21.70;72.10;;;;;;4862884;29;20204;-77
2023/01/14 18:36:16;;;;;;;1.50;1.00;;;21.70;72.00;;;;;;4864928;29;20293;-78
2023/01/14 18:38:44;;;;;;;1.00;0.70;;;21.70;72.00;;;;;;4868843;29;20884;-78
2023/01/14 18:41:13;;;;;;;1.83;0.90;;;21.70;71.80;;;;;;4867577;29;20215;-77
2023/01/14 18:43:40;;;;;;;1.42;0.70;;;21.70;71.80;;;;;;4865648;29;20219;-78
2023/01/14 18:46:12;;;;;;;1.10;0.90;;;21.70;71.80;;;;;;4864781;29;20223;-78
2023/01/14 18:48:40;;;;;;;1.65;1.00;;;21.80;71.70;;;;;;4866335;29;20259;-79
2023/01/14 18:51:06;;;;;;;1.15;0.80;;;21.80;71.70;;;;;;4865964;29;20230;-79
2023/01/14 18:53:33;;;;;;;1.23;0.93;;;21.80;71.60;;;;;;4865141;29;20204;-78
2023/01/14 18:56:06;;;;;;;1.90;1.20;;;21.80;71.50;;;;;;4864932;29;20329;-79
2023/01/14 18:58:35;;;;;;;1.00;0.80;;;21.80;71.70;;;;;;4861995;29;20216;-78
2023/01/14 19:01:09;;;;;;;1.65;1.10;;;21.70;71.80;;;;;;4858598;29;20216;-77
2023/01/14 19:03:36;;;;;;;1.13;0.82;;;21.60;72.00;;;;;;4860383;29;20294;-76
2023/01/14 19:06:03;;;;;;;1.10;0.82;;;21.60;72.30;;;;;;4860002;29;20211;-77
2023/01/14 19:08:29;;;;;;;1.23;0.80;;;21.60;72.50;;;;;;4860150;29;20704;-78
2023/01/14 19:10:57;;;;;;;1.10;0.93;;;21.50;72.50;;;;;;4864232;29;20276;-77
2023/01/14 19:13:25;;;;;;;1.70;1.00;;;21.50;72.60;;;;;;4862069;29;20358;-77
2023/01/14 19:15:53;;;;;;;1.60;0.88;;;21.50;72.80;;;;;;4864963;29;20205;-77
2023/01/14 19:18:22;;;;;;;1.10;0.80;;;21.50;72.60;;;;;;4870571;29;20207;-78
2023/01/14 19:20:56;;;;;;;0.90;0.70;;;21.50;72.70;;;;;;4870751;29;20773;-77
2023/01/14 19:23:22;;;;;;;1.55;1.02;;;21.60;72.70;;;;;;4871083;29;20762;-77
2023/01/14 19:25:49;;;;;;;3.50;1.08;;;21.60;73.40;;;;;;4871589;29;20276;-76
2023/01/14 19:28:16;;;;;;;1.80;1.50;;;21.60;72.50;;;;;;4869915;29;20713;-76
2023/01/14 19:30:44;;;;;;;1.10;0.80;;;21.70;72.50;;;;;;4868488;29;20657;-77
2023/01/14 19:33:11;;;;;;;1.58;0.98;;;21.70;72.50;;;;;;4867006;29;20746;-77
2023/01/14 19:35:37;;;;;;;1.40;0.90;;;21.70;72.30;;;;;;4871649;29;20234;-75
2023/01/14 19:38:04;;;;;;;1.20;0.80;;;21.70;72.20;;;;;;4870005;29;20216;-75
2023/01/14 19:40:31;;;;;;;1.10;0.80;;;21.80;72.20;;;;;;4868811;29;20204;-77
2023/01/14 19:42:57;;;;;;;1.00;0.80;;;21.80;72.00;;;;;;4871189;29;20211;-77
2023/01/14 19:45:24;;;;;;;1.23;0.80;;;21.80;72.00;;;;;;4870438;29;20211;-76
2023/01/14 19:47:52;;;;;;;4.07;1.02;;;21.80;72.00;;;;;;4870093;29;20223;-76
2023/01/14 19:50:19;;;;;;;1.10;1.00;;;21.80;72.00;;;;;;4870276;29;20212;-78
2023/01/14 19:52:46;;;;;;;1.00;0.80;;;21.80;72.00;;;;;;4869514;29;20696;-76
2023/01/14 19:55:12;;;;;;;1.10;0.77;;;21.80;72.00;;;;;;4870920;29;20264;-77
2023/01/14 19:57:39;;;;;;;1.00;0.70;;;21.80;72.00;;;;;;4871660;29;20564;-75
2023/01/14 20:00:08;;;;;;;0.93;0.70;;;21.80;72.00;;;;;;4869957;29;20218;-78
2023/01/14 20:02:35;;;;;;;1.20;0.85;;;21.80;72.00;;;;;;4870243;29;20698;-77
2023/01/14 20:05:03;;;;;;;1.20;0.90;;;21.80;72.10;;;;;;4871208;29;20667;-78
2023/01/14 20:07:31;;;;;;;1.45;1.00;;;21.80;72.10;;;;;;4866506;29;20722;-83
2023/01/14 20:09:58;;;;;;;1.52;0.98;;;21.70;72.00;;;;;;4868733;29;20801;-81
2023/01/14 20:12:25;;;;;;;1.20;0.90;;;21.90;71.90;;;;;;4868269;29;20706;-84
2023/01/14 20:14:52;;;;;;;1.20;0.77;;;22.00;71.50;;;;;;4869307;29;20203;-80
2023/01/14 20:17:18;;;;;;;1.27;0.90;;;22.10;71.30;;;;;;4869318;29;20222;-80
2023/01/14 20:19:45;;;;;;;1.20;0.80;;;22.10;71.00;;;;;;4867573;29;20218;-84
2023/01/14 20:22:13;;;;;;;1.63;0.88;;;22.10;70.90;;;;;;4868315;29;20220;-81
2023/01/14 20:24:40;;;;;;;1.00;0.80;;;22.20;70.90;;;;;;4870876;29;20216;-83
2023/01/14 20:27:06;;;;;;;1.80;0.90;;;22.20;70.80;;;;;;4859253;29;20223;-81
2023/01/14 20:29:33;;;;;;;1.88;1.00;;;22.20;70.60;;;;;;4868162;29;20777;-79
2023/01/14 20:32:00;;;;;;;2.28;0.90;;;22.20;70.40;;;;;;4861053;29;20208;-82
2023/01/14 20:34:27;;;;;;;1.27;1.17;;;22.30;70.30;;;;;;4867767;29;20307;-78
2023/01/14 20:36:55;;;;;;;1.17;1.00;;;22.30;70.20;;;;;;4868267;29;20657;-82
2023/01/14 20:39:23;;;;;;;1.50;0.98;;;22.30;70.10;;;;;;4870419;29;20264;-82
2023/01/14 20:47:22;;;;;;;1.10;0.80;;;22.30;70.00;;;;;;4860040;29;20258;-83
2023/01/14 20:49:49;;;;;;;1.30;1.10;;;22.30;69.90;;;;;;4867401;29;20204;-79
2023/01/14 20:52:15;;;;;;;1.42;0.93;;;22.40;69.90;;;;;;4868187;29;20215;-78
2023/01/14 20:54:44;;;;;;;1.58;0.85;;;22.40;69.90;;;;;;4864590;29;20635;-82
2023/01/14 20:57:10;;;;;;;1.10;0.77;;;22.40;69.90;;;;;;4869680;29;20750;-82
2023/01/14 20:59:38;;;;;;;2.05;1.00;;;22.30;69.70;;;;;;4868651;29;20276;-81
2023/01/14 21:02:05;;;;;;;2.60;0.88;;;22.40;69.80;;;;;;4868203;29;20227;-80
2023/01/14 21:04:32;;;;;;;1.10;0.90;;;22.40;69.80;;;;;;4869112;29;20695;-80
2023/01/14 21:06:58;;;;;;;1.00;0.80;;;22.40;69.60;;;;;;4868481;29;20206;-79
2023/01/14 21:09:25;;;;;;;1.23;0.70;;;22.30;69.70;;;;;;4866897;29;20253;-78
2023/01/14 21:11:55;;;;;;;1.10;0.80;;;22.40;69.80;;;;;;4869785;29;20203;-83
2023/01/14 21:25:19;;;;;;;1.00;0.80;;;22.40;69.40;;;;;;4867720;29;20401;-83
2023/01/14 21:27:47;;;;;;;1.00;0.80;;;22.40;69.40;;;;;;4867136;29;20227;-82
2023/01/14 21:30:16;;;;;;;1.15;0.80;;;22.40;69.50;;;;;;4865382;29;20288;-82
2023/01/14 21:32:43;;;;;;;1.15;0.70;;;22.40;69.50;;;;;;4867193;29;20211;-79
2023/01/14 21:35:11;;;;;;;1.20;0.80;;;22.40;69.60;;;;;;4866914;29;20204;-82
2023/01/14 21:37:39;;;;;;;1.00;0.80;;;22.40;69.60;;;;;;4882664;29;20211;-79
2023/01/14 21:40:07;;;;;;;1.20;0.75;;;22.40;69.60;;;;;;4863914;29;20236;-80
2023/01/14 21:45:19;;;;;;;1.20;0.80;;;22.40;69.60;;;;;;4865981;29;20746;-81
2023/01/14 21:47:46;;;;;;;0.90;0.70;;;22.30;69.60;;;;;;4869069;29;20227;-83
2023/01/14 21:50:19;;;;;;;0.98;0.80;;;22.30;69.60;;;;;;4866307;29;20203;-80
2023/01/14 21:52:45;;;;;;;1.65;0.80;;;22.30;69.70;;;;;;4868404;29;20306;-83
2023/01/14 21:55:12;;;;;;;0.90;0.70;;;22.30;69.70;;;;;;4866630;29;20685;-84
2023/01/14 21:57:39;;;;;;;1.02;0.80;;;22.20;69.80;;;;;;4867879;29;20206;-83
2023/01/14 22:00:07;;;;;;;1.00;0.80;;;22.20;69.80;;;;;;4867070;29;20220;-84
2023/01/14 22:02:35;;;;;;;0.93;0.77;;;22.20;69.70;;;;;;4867957;29;20564;-79
2023/01/14 22:05:03;;;;;;;0.95;0.70;;;22.20;69.80;;;;;;4868276;29;20211;-80
2023/01/14 22:07:30;;;;;;;1.00;0.70;;;21.80;70.70;;;;;;4865687;29;20664;-79
2023/01/14 22:09:57;;;;;;;1.30;1.00;;;21.60;71.60;;;;;;4866732;29;20216;-77
2023/01/14 22:12:23;;;;;;;2.03;1.77;;;21.40;71.90;;;;;;4869916;29;20212;-78
2023/01/14 22:14:50;;;;;;;1.20;0.80;;;21.40;72.40;;;;;;4866586;29;20683;-78
2023/01/14 22:17:17;;;;;;;1.15;0.80;;;21.30;72.60;;;;;;4865202;29;20216;-78
2023/01/14 22:19:45;;;;;;;1.10;0.80;;;21.20;72.70;;;;;;4869252;29;20691;-78
2023/01/14 22:22:12;;;;;;;1.05;0.80;;;21.20;73.00;;;;;;4867253;29;20214;-78
2023/01/14 22:24:38;;;;;;;1.20;0.75;;;21.20;73.10;;;;;;4866663;29;20608;-78
2023/01/14 22:27:05;;;;;;;0.95;0.80;;;21.10;73.20;;;;;;4866841;29;20820;-77
2023/01/14 22:29:32;;;;;;;0.93;0.70;;;21.10;73.40;;;;;;4867890;29;20223;-78
2023/01/14 22:31:58;;;;;;;1.25;1.00;;;21.10;73.50;;;;;;4866501;29;20214;-79
2023/01/14 22:34:25;;;;;;;1.30;0.80;;;21.00;73.50;;;;;;4866079;29;20962;-78
2023/01/14 22:36:53;;;;;;;1.10;1.00;;;21.00;73.70;;;;;;4865163;29;20215;-78
2023/01/14 22:39:20;;;;;;;0.90;0.70;;;21.00;73.80;;;;;;4868000;29;20251;-77
2023/01/14 22:41:48;;;;;;;0.80;0.63;;;21.00;73.90;;;;;;4865252;29;20247;-78
2023/01/14 22:44:15;;;;;;;1.00;0.70;;;20.90;73.90;;;;;;4864452;29;20305;-78
2023/01/14 22:46:42;;;;;;;1.33;0.80;;;20.90;73.90;;;;;;4863922;29;20207;-79
2023/01/14 22:49:09;;;;;;;1.73;0.90;;;20.90;74.00;;;;;;4862885;29;20227;-77
2023/01/14 22:51:36;;;;;;;0.98;0.70;;;20.90;74.20;;;;;;4866555;29;20207;-78
2023/01/14 22:54:04;;;;;;;0.90;0.70;;;20.80;74.20;;;;;;4866961;29;20217;-78
2023/01/14 22:56:31;;;;;;;1.15;0.90;;;20.80;74.20;;;;;;4863846;29;20215;-79
2023/01/14 22:59:00;;;;;;;0.98;0.70;;;20.80;74.30;;;;;;4866598;29;20738;-79
2023/01/14 23:01:27;;;;;;;1.15;1.02;;;20.80;74.40;;;;;;4865116;29;20645;-78